createdAt,value
2018-04-08T00:01:25.836Z,24.10
2018-04-08T00:03:53.366Z,23.40
2018-04-08T00:06:21.015Z,24.57
2018-04-08T00:08:49.477Z,24.10
2018-04-08T00:11:16.971Z,24.50
2018-04-08T00:13:44.519Z,24.23
2018-04-08T00:16:12.778Z,24.70
2018-04-08T00:18:40.289Z,24.83
2018-04-08T00:21:07.808Z,25.07
2018-04-08T00:23:35.639Z,25.40
2018-04-08T00:26:04.188Z,26.03
2018-04-08T00:28:32.090Z,24.50
2018-04-08T00:31:02.106Z,24.90
2018-04-08T00:33:29.629Z,25.60
2018-04-08T00:35:57.123Z,24.53
2018-04-08T00:38:24.707Z,26.17
2018-04-08T00:40:52.479Z,27.00
2018-04-08T00:43:19.988Z,26.33
2018-04-08T00:45:47.503Z,25.97
2018-04-08T00:48:15.547Z,28.33
2018-04-08T00:50:43.866Z,25.93
2018-04-08T00:53:11.404Z,28.13
2018-04-08T00:55:38.999Z,26.13
2018-04-08T00:58:06.499Z,25.33
2018-04-08T01:00:34.756Z,26.17
2018-04-08T01:03:02.999Z,27.37
2018-04-08T01:05:30.528Z,25.97
2018-04-08T01:07:58.030Z,27.43
2018-04-08T01:10:26.187Z,26.60
2018-04-08T01:12:53.688Z,28.77
2018-04-08T01:15:21.206Z,28.00
2018-04-08T01:17:49.627Z,26.90
2018-04-08T01:20:17.132Z,28.60
2018-04-08T01:22:44.694Z,28.80
2018-04-08T01:25:12.801Z,26.30
2018-04-08T01:27:40.326Z,27.87
2018-04-08T01:30:07.828Z,27.60
2018-04-08T01:32:36.860Z,26.40
2018-04-08T01:35:04.404Z,26.73
2018-04-08T01:37:31.949Z,26.47
2018-04-08T01:39:59.506Z,27.43
2018-04-08T01:42:27.122Z,28.60
2018-04-08T01:44:56.011Z,28.37
2018-04-08T01:47:23.541Z,26.03
2018-04-08T01:49:51.850Z,27.47
2018-04-08T01:52:19.380Z,26.60
2018-04-08T01:54:46.977Z,26.30
2018-04-08T01:57:15.120Z,26.53
2018-04-08T01:59:43.535Z,26.53
2018-04-08T02:02:11.087Z,28.70
2018-04-08T02:04:38.629Z,25.70
2018-04-08T02:07:07.886Z,25.83
2018-04-08T02:09:36.027Z,26.57
2018-04-08T02:12:04.271Z,26.03
2018-04-08T02:14:31.879Z,24.77
2018-04-08T02:16:59.428Z,24.50
2018-04-08T02:19:26.968Z,26.60
2018-04-08T02:21:54.806Z,24.63
2018-04-08T02:24:23.131Z,26.17
2018-04-08T02:26:50.799Z,25.47
2018-04-08T02:29:18.356Z,25.80
2018-04-08T02:31:45.974Z,26.60
2018-04-08T02:34:14.399Z,26.53
2018-04-08T02:36:41.929Z,25.63
2018-04-08T02:39:09.455Z,26.87
2018-04-08T02:41:37.020Z,25.77
2018-04-08T02:44:05.345Z,26.53
2018-04-08T02:46:33.479Z,24.73
2018-04-08T02:49:01.066Z,26.67
2018-04-08T02:51:28.642Z,26.10
2018-04-08T02:53:57.135Z,26.57
2018-04-08T02:56:24.681Z,24.50
2018-04-08T02:58:52.352Z,26.70
2018-04-08T03:01:19.888Z,25.97
2018-04-08T03:03:47.476Z,25.37
2018-04-08T03:06:15.012Z,26.10
2018-04-08T03:08:42.572Z,26.57
2018-04-08T03:11:10.868Z,25.83
2018-04-08T03:13:38.395Z,26.07
2018-04-08T03:16:06.174Z,27.63
2018-04-08T03:18:34.954Z,25.80
2018-04-08T03:21:02.470Z,25.60
2018-04-08T03:23:30.059Z,25.77
2018-04-08T03:25:57.607Z,27.80
2018-04-08T03:28:26.178Z,28.33
2018-04-08T03:30:54.749Z,28.10
2018-04-08T03:33:22.348Z,27.60
2018-04-08T03:35:50.766Z,27.67
2018-04-08T03:38:18.330Z,27.87
2018-04-08T03:40:45.872Z,26.97
2018-04-08T03:43:13.413Z,27.57
2018-04-08T03:45:41.067Z,28.37
2018-04-08T03:48:08.621Z,26.80
2018-04-08T03:50:36.929Z,26.70
2018-04-08T03:53:04.756Z,27.10
2018-04-08T03:55:32.318Z,27.60
2018-04-08T03:58:00.790Z,29.00
2018-04-08T04:00:28.725Z,29.60
2018-04-08T04:02:56.310Z,28.20
2018-04-08T04:05:24.084Z,28.50
2018-04-08T04:07:51.688Z,28.67
2018-04-08T04:10:19.879Z,27.90
2018-04-08T04:12:47.487Z,27.80
2018-04-08T04:15:16.290Z,28.77
2018-04-08T04:17:44.645Z,28.70
2018-04-08T04:20:23.892Z,27.47
2018-04-08T04:23:04.194Z,27.53
2018-04-08T04:25:55.118Z,28.37
2018-04-08T04:28:22.634Z,28.73
2018-04-08T04:30:50.175Z,30.37
2018-04-08T04:33:17.727Z,28.60
2018-04-08T04:35:46.904Z,29.90
2018-04-08T04:38:14.610Z,28.57
2018-04-08T04:40:43.214Z,29.93
2018-04-08T04:43:10.728Z,28.70
2018-04-08T04:45:39.034Z,30.27
2018-04-08T04:48:09.483Z,28.23
2018-04-08T04:50:37.889Z,27.30
2018-04-08T04:53:06.682Z,29.03
2018-04-08T04:55:36.222Z,28.10
2018-04-08T04:58:03.775Z,28.97
2018-04-08T05:00:32.107Z,31.37
2018-04-08T05:02:59.687Z,30.93
2018-04-08T05:05:28.540Z,31.43
2018-04-08T05:07:56.851Z,32.00
2018-04-08T05:10:24.968Z,32.40
2018-04-08T05:12:53.285Z,31.97
2018-04-08T05:15:20.886Z,35.30
2018-04-08T05:17:49.179Z,34.10
2018-04-08T05:20:16.722Z,33.67
2018-04-08T05:22:45.035Z,33.20
2018-04-08T05:25:12.611Z,37.00
2018-04-08T05:27:40.157Z,36.27
2018-04-08T05:30:08.500Z,37.30
2018-04-08T05:32:36.893Z,38.57
2018-04-08T05:35:05.515Z,36.43
2018-04-08T05:37:33.760Z,38.30
2018-04-08T05:40:01.736Z,39.20
2018-04-08T05:42:29.293Z,38.37
2018-04-08T05:44:56.887Z,39.17
2018-04-08T05:47:24.672Z,39.07
2018-04-08T05:49:52.266Z,38.00
2018-04-08T05:52:19.808Z,39.60
2018-04-08T05:54:48.023Z,40.57
2018-04-08T05:57:16.230Z,37.50
2018-04-08T05:59:43.766Z,38.70
2018-04-08T06:02:11.373Z,38.40
2018-04-08T06:04:38.952Z,37.10
2018-04-08T06:07:08.410Z,37.47
2018-04-08T06:09:36.896Z,38.93
2018-04-08T06:12:04.866Z,37.97
2018-04-08T06:14:33.207Z,37.27
2018-04-08T06:17:00.796Z,41.10
2018-04-08T06:19:28.329Z,38.07
2018-04-08T06:21:56.434Z,37.97
2018-04-08T06:24:23.993Z,38.07
2018-04-08T06:26:52.108Z,37.40
2018-04-08T06:29:19.668Z,37.97
2018-04-08T06:31:47.211Z,38.70
2018-04-08T06:34:14.808Z,40.17
2018-04-08T06:36:42.354Z,41.20
2018-04-08T06:39:10.678Z,41.00
2018-04-08T06:41:38.880Z,41.07
2018-04-08T06:44:07.297Z,43.17
2018-04-08T06:46:35.601Z,41.57
2018-04-08T06:49:03.135Z,43.63
2018-04-08T06:51:31.510Z,42.20
2018-04-08T06:53:59.060Z,42.90
2018-04-08T06:56:28.219Z,40.20
2018-04-08T06:58:55.804Z,41.33
2018-04-08T07:01:23.359Z,42.20
2018-04-08T07:03:52.306Z,39.43
2018-04-08T07:06:19.899Z,41.60
2018-04-08T07:08:48.028Z,40.70
2018-04-08T07:11:16.887Z,39.23
2018-04-08T07:13:45.506Z,40.93
2018-04-08T07:16:13.083Z,37.80
2018-04-08T07:18:40.905Z,37.97
2018-04-08T07:21:08.464Z,38.40
2018-04-08T07:23:37.488Z,38.80
2018-04-08T07:26:05.304Z,38.07
2018-04-08T07:28:33.749Z,38.30
2018-04-08T07:31:01.332Z,36.27
2018-04-08T07:33:29.036Z,36.03
2018-04-08T07:35:57.367Z,34.73
2018-04-08T07:38:24.951Z,36.27
2018-04-08T07:40:52.506Z,35.97
2018-04-08T07:43:20.052Z,37.30
2018-04-08T07:45:47.628Z,37.97
2018-04-08T07:48:15.194Z,34.27
2018-04-08T07:50:42.737Z,34.53
2018-04-08T07:53:11.258Z,37.57
2018-04-08T07:55:40.729Z,35.87
2018-04-08T07:58:08.311Z,38.43
2018-04-08T08:00:37.295Z,34.83
2018-04-08T08:03:04.903Z,36.93
2018-04-08T08:05:32.465Z,34.70
2018-04-08T08:08:00.896Z,35.70
2018-04-08T08:10:28.455Z,34.40
2018-04-08T08:12:56.768Z,35.57
2018-04-08T08:15:26.807Z,35.37
2018-04-08T08:17:54.788Z,34.70
2018-04-08T08:20:22.369Z,35.87
2018-04-08T08:22:50.259Z,35.93
2018-04-08T08:25:17.972Z,35.63
2018-04-08T08:27:46.139Z,35.37
2018-04-08T08:30:14.599Z,33.57
2018-04-08T08:32:42.162Z,31.90
2018-04-08T08:35:09.781Z,33.30
2018-04-08T08:37:38.292Z,33.57
2018-04-08T08:40:07.450Z,33.80
2018-04-08T08:42:34.993Z,34.10
2018-04-08T08:45:02.858Z,32.20
2018-04-08T08:47:30.392Z,32.70
2018-04-08T08:49:57.933Z,32.53
2018-04-08T08:52:26.025Z,30.43
2018-04-08T08:54:53.649Z,32.60
2018-04-08T08:57:22.514Z,32.50
2018-04-08T08:59:50.050Z,33.90
2018-04-08T09:02:17.977Z,31.90
2018-04-08T09:04:46.399Z,31.30
2018-04-08T09:07:14.472Z,31.77
2018-04-08T09:09:41.999Z,31.80
2018-04-08T09:12:11.085Z,31.73
2018-04-08T09:14:38.610Z,30.40
2018-04-08T09:17:07.496Z,29.57
2018-04-08T09:19:38.029Z,32.07
2018-04-08T09:22:11.282Z,30.60
2018-04-08T09:24:41.587Z,31.03
2018-04-08T09:27:09.158Z,30.63
2018-04-08T09:29:36.779Z,30.20
2018-04-08T09:32:04.379Z,29.93
2018-04-08T09:34:31.962Z,31.37
2018-04-08T09:36:59.732Z,29.17
2018-04-08T09:39:27.911Z,29.47
2018-04-08T09:41:56.389Z,31.77
2018-04-08T09:44:23.992Z,31.97
2018-04-08T09:46:52.552Z,30.70
2018-04-08T09:49:20.099Z,30.87
2018-04-08T09:51:47.747Z,31.57
2018-04-08T09:54:15.518Z,31.37
2018-04-08T09:56:43.065Z,30.87
2018-04-08T09:59:12.044Z,30.77
2018-04-08T10:01:45.879Z,31.33
2018-04-08T10:04:13.439Z,28.83
2018-04-08T10:06:40.984Z,30.73
2018-04-08T10:09:08.543Z,30.40
2018-04-08T10:11:36.827Z,33.40
2018-04-08T10:14:04.391Z,31.70
2018-04-08T10:16:31.961Z,32.57
2018-04-08T10:18:59.547Z,33.10
2018-04-08T10:21:27.095Z,36.67
2018-04-08T10:23:54.839Z,34.20
2018-04-08T10:26:22.357Z,33.80
2018-04-08T10:28:51.101Z,36.00
2018-04-08T10:31:18.652Z,32.37
2018-04-08T10:33:46.927Z,31.63
2018-04-08T10:36:15.341Z,33.20
2018-04-08T10:38:43.622Z,33.37
2018-04-08T10:41:11.207Z,33.80
2018-04-08T10:43:39.245Z,31.33
2018-04-08T10:46:06.808Z,34.30
2018-04-08T10:48:34.350Z,35.70
2018-04-08T10:51:01.915Z,33.40
2018-04-08T10:53:29.453Z,33.27
2018-04-08T10:55:57.012Z,30.10
2018-04-08T10:58:24.623Z,33.00
2018-04-08T11:00:52.147Z,39.17
2018-04-08T11:03:20.156Z,56.27
2018-04-08T11:05:48.653Z,34.60
2018-04-08T11:08:16.302Z,32.60
2018-04-08T11:10:45.333Z,33.77
2018-04-08T11:13:14.177Z,29.50
2018-04-08T11:15:41.709Z,28.13
2018-04-08T11:18:10.118Z,28.00
2018-04-08T11:20:37.731Z,26.60
2018-04-08T11:23:06.298Z,24.70
2018-04-08T11:25:34.828Z,21.73
2018-04-08T11:28:02.414Z,20.30
2018-04-08T11:30:30.734Z,20.03
2018-04-08T11:32:58.335Z,21.87
2018-04-08T11:35:26.637Z,20.30
2018-04-08T11:37:54.993Z,25.23
2018-04-08T11:40:23.114Z,21.73
2018-04-08T11:42:50.635Z,31.73
2018-04-08T11:45:18.958Z,82.43
2018-04-08T11:47:47.479Z,33.10
2018-04-08T11:50:15.038Z,28.77
2018-04-08T11:52:42.593Z,24.87
2018-04-08T11:55:10.200Z,21.17
2018-04-08T11:57:37.739Z,22.40
2018-04-08T12:00:06.900Z,19.70
2018-04-08T12:02:34.676Z,17.17
2018-04-08T12:05:02.227Z,17.03
2018-04-08T12:07:29.798Z,17.30
2018-04-08T12:09:57.376Z,18.00
2018-04-08T12:12:24.896Z,16.47
2018-04-08T12:14:52.958Z,17.03
2018-04-08T12:17:20.510Z,14.67
2018-04-08T12:19:48.119Z,16.17
2018-04-08T12:22:16.211Z,15.47
2018-04-08T12:24:45.157Z,14.77
2018-04-08T12:27:12.716Z,13.50
2018-04-08T12:29:40.332Z,13.07
2018-04-08T12:32:08.648Z,13.60
2018-04-08T12:34:36.566Z,14.20
2018-04-08T12:37:04.932Z,14.57
2018-04-08T12:39:34.003Z,12.97
2018-04-08T12:42:01.572Z,13.53
2018-04-08T12:44:29.887Z,13.70
2018-04-08T12:46:58.229Z,12.47
2018-04-08T12:49:26.839Z,12.60
2018-04-08T12:51:55.845Z,12.80
2018-04-08T12:54:24.292Z,14.63
2018-04-08T12:56:52.674Z,13.30
2018-04-08T12:59:20.432Z,10.53
2018-04-08T13:01:48.763Z,10.97
2018-04-08T13:04:17.247Z,12.20
2018-04-08T13:06:45.613Z,12.40
2018-04-08T13:09:14.056Z,11.57
2018-04-08T13:11:41.614Z,11.90
2018-04-08T13:14:09.238Z,12.50
2018-04-08T13:16:36.779Z,10.40
2018-04-08T13:19:04.369Z,10.17
2018-04-08T13:21:31.968Z,9.50
2018-04-08T13:23:59.523Z,9.93
2018-04-08T13:26:27.636Z,12.10
2018-04-08T13:28:55.199Z,9.17
2018-04-08T13:31:22.762Z,10.00
2018-04-08T13:33:50.338Z,9.40
2018-04-08T13:36:17.894Z,9.20
2018-04-08T13:38:45.938Z,8.50
2018-04-08T13:41:14.351Z,9.03
2018-04-08T13:56:37.736Z,8.93
2018-04-08T13:59:05.332Z,8.50
2018-04-08T14:01:33.658Z,8.60
2018-04-08T14:04:01.791Z,7.47
2018-04-08T14:06:29.955Z,7.60
2018-04-08T14:08:58.291Z,7.47
2018-04-08T14:11:26.441Z,8.50
2018-04-08T14:13:54.211Z,8.00
2018-04-08T14:16:21.730Z,7.70
2018-04-08T14:18:49.268Z,8.07
2018-04-08T14:21:17.099Z,8.13
2018-04-08T14:23:44.652Z,8.50
2018-04-08T14:26:12.215Z,8.40
2018-04-08T14:28:40.878Z,7.30
2018-04-08T14:31:10.165Z,8.37
2018-04-08T14:33:37.741Z,8.10
2018-04-08T14:36:05.877Z,8.20
2018-04-08T14:38:34.553Z,8.77
2018-04-08T14:41:02.110Z,9.07
2018-04-08T14:43:32.447Z,9.43
2018-04-08T14:46:00.044Z,9.33
2018-04-08T14:48:28.354Z,8.40
2018-04-08T14:50:58.252Z,8.80
2018-04-08T14:53:27.023Z,8.73
2018-04-08T14:55:54.702Z,8.33
2018-04-08T14:58:23.911Z,8.53
2018-04-08T15:00:52.383Z,8.07
2018-04-08T15:03:21.403Z,8.00
2018-04-08T15:05:50.046Z,8.23
2018-04-08T15:08:19.058Z,7.60
2018-04-08T15:10:46.819Z,7.60
2018-04-08T15:13:17.400Z,8.13
2018-04-08T15:15:46.519Z,7.47
2018-04-08T15:18:15.931Z,7.50
2018-04-08T15:20:44.707Z,7.60
2018-04-08T15:23:12.288Z,8.33
2018-04-08T15:25:42.316Z,7.10
2018-04-08T15:28:12.536Z,7.33
2018-04-08T15:30:43.067Z,7.80
2018-04-08T15:33:11.323Z,8.87
2018-04-08T15:35:39.668Z,8.37
2018-04-08T15:38:07.204Z,8.67
2018-04-08T15:40:37.920Z,7.80
2018-04-08T15:43:06.427Z,9.20
2018-04-08T15:45:35.927Z,9.17
2018-04-08T15:48:04.396Z,7.97
2018-04-08T15:50:33.279Z,7.83
2018-04-08T15:53:03.080Z,8.27
2018-04-08T15:55:31.143Z,8.13
2018-04-08T15:57:59.559Z,7.73
2018-04-08T16:00:28.751Z,7.33
2018-04-08T16:02:57.789Z,8.03
2018-04-08T16:05:29.622Z,8.00
2018-04-08T16:07:57.191Z,7.73
2018-04-08T16:10:25.950Z,7.63
2018-04-08T16:12:56.329Z,7.80
2018-04-08T16:15:25.655Z,8.17
2018-04-08T16:17:54.935Z,7.47
2018-04-08T16:20:24.073Z,8.90
2018-04-08T16:22:53.391Z,8.37
2018-04-08T16:25:23.982Z,7.63
2018-04-08T16:27:53.696Z,8.03
2018-04-08T16:30:23.146Z,8.80
2018-04-08T16:32:53.106Z,8.20
2018-04-08T16:35:23.250Z,7.47
2018-04-08T16:37:51.872Z,8.80
2018-04-08T16:40:20.110Z,8.00
2018-04-08T16:42:50.317Z,7.93
2018-04-08T16:45:22.272Z,8.00
2018-04-08T16:47:51.336Z,8.87
2018-04-08T16:50:22.089Z,8.10
2018-04-08T16:52:52.276Z,8.00
2018-04-08T16:55:22.335Z,8.40
2018-04-08T16:57:51.679Z,7.03
2018-04-08T17:00:20.044Z,7.57
2018-04-08T17:02:49.144Z,7.30
2018-04-08T17:05:16.770Z,8.20
2018-04-08T17:07:46.115Z,7.17
2018-04-08T17:10:13.760Z,8.33
2018-04-08T17:12:41.578Z,7.60
2018-04-08T17:15:10.964Z,8.70
2018-04-08T17:17:39.370Z,8.47
2018-04-08T17:20:07.714Z,8.37
2018-04-08T17:22:37.839Z,8.07
2018-04-08T17:25:07.161Z,9.30
2018-04-08T17:27:34.751Z,8.60
2018-04-08T17:30:02.955Z,7.90
2018-04-08T17:32:31.278Z,7.70
2018-04-08T17:35:00.685Z,8.30
2018-04-08T17:37:28.270Z,8.40
2018-04-08T17:39:58.023Z,7.93
2018-04-08T17:42:25.611Z,7.63
2018-04-08T17:44:54.222Z,7.60
2018-04-08T17:47:23.343Z,8.50
2018-04-08T17:49:52.390Z,8.90
2018-04-08T17:52:21.023Z,8.70
2018-04-08T17:54:48.718Z,8.80
2018-04-08T17:57:17.237Z,8.77
2018-04-08T17:59:44.794Z,9.40
2018-04-08T18:02:15.388Z,9.00
2018-04-08T18:04:44.425Z,8.30
2018-04-08T18:07:12.554Z,9.63
2018-04-08T18:09:40.685Z,8.97
2018-04-08T18:12:08.580Z,8.77
2018-04-08T18:14:38.263Z,9.07
2018-04-08T18:17:07.275Z,8.67
2018-04-08T18:19:37.017Z,9.60
2018-04-08T18:22:04.864Z,9.80
2018-04-08T18:24:33.723Z,9.30
2018-04-08T18:27:01.291Z,8.17
2018-04-08T18:29:30.016Z,9.10
2018-04-08T18:31:58.876Z,9.10
2018-04-08T18:34:27.182Z,8.20
2018-04-08T18:36:54.738Z,8.17
2018-04-08T18:39:23.135Z,9.33
2018-04-08T18:41:53.346Z,7.60
2018-04-08T18:44:22.543Z,8.33
2018-04-08T18:46:50.671Z,8.10
2018-04-08T18:49:19.141Z,8.23
2018-04-08T18:51:49.468Z,7.67
2018-04-08T18:54:17.651Z,7.70
2018-04-08T18:56:46.321Z,7.17
2018-04-08T18:59:15.972Z,7.40
2018-04-08T19:01:44.448Z,8.40
2018-04-08T19:04:12.510Z,8.40
2018-04-08T19:06:40.552Z,8.03
2018-04-08T19:09:10.670Z,8.10
2018-04-08T19:11:39.691Z,7.80
2018-04-08T19:14:08.985Z,7.70
2018-04-08T19:16:39.618Z,7.20
2018-04-08T19:19:08.300Z,7.67
2018-04-08T19:21:36.683Z,7.80
2018-04-08T19:24:05.302Z,7.07
2018-04-08T19:26:34.947Z,7.37
2018-04-08T19:29:03.299Z,7.77
2018-04-08T19:31:30.833Z,7.60
2018-04-08T19:33:59.931Z,7.20
2018-04-08T19:36:30.146Z,7.30
2018-04-08T19:38:59.264Z,6.80
2018-04-08T19:41:28.369Z,7.70
2018-04-08T19:43:56.391Z,7.07
2018-04-08T19:46:23.918Z,6.50
2018-04-08T19:48:52.928Z,7.83
2018-04-08T19:51:21.782Z,6.97
2018-04-08T19:53:50.867Z,7.20
2018-04-08T19:56:20.228Z,7.30
2018-04-08T19:58:50.707Z,7.97
2018-04-08T20:01:18.237Z,7.73
2018-04-08T20:03:46.833Z,7.10
2018-04-08T20:06:14.357Z,7.50
2018-04-08T20:08:42.664Z,7.23
2018-04-08T20:11:10.230Z,8.33
2018-04-08T20:13:37.838Z,8.00
2018-04-08T20:16:05.521Z,8.50
2018-04-08T20:18:33.532Z,7.80
2018-04-08T20:21:02.440Z,7.30
2018-04-08T20:23:29.987Z,7.87
2018-04-08T20:25:57.787Z,6.63
2018-04-08T20:28:26.755Z,7.50
2018-04-08T20:30:54.265Z,7.60
2018-04-08T20:33:21.894Z,7.63
2018-04-08T20:35:50.031Z,7.07
2018-04-08T20:38:17.623Z,7.43
2018-04-08T20:40:45.824Z,7.60
2018-04-08T20:43:14.160Z,7.60
2018-04-08T20:45:41.719Z,6.73
2018-04-08T20:48:09.316Z,8.50
2018-04-08T20:50:36.891Z,7.47
2018-04-08T20:53:04.441Z,7.67
2018-04-08T20:55:32.744Z,7.63
2018-04-08T20:58:00.273Z,8.20
2018-04-08T21:00:28.593Z,8.53
2018-04-08T21:02:57.610Z,7.13
2018-04-08T21:05:25.266Z,7.30
2018-04-08T21:07:53.399Z,7.70
2018-04-08T21:10:20.953Z,7.70
2018-04-08T21:12:48.545Z,8.87
2018-04-08T21:15:16.088Z,7.57
2018-04-08T21:17:43.612Z,8.00
2018-04-08T21:20:11.194Z,8.17
2018-04-08T21:22:38.739Z,6.80
2018-04-08T21:25:07.777Z,7.47
2018-04-08T21:27:35.326Z,6.63
2018-04-08T21:30:02.920Z,6.60
2018-04-08T21:32:30.480Z,7.30
2018-04-08T21:34:58.071Z,7.67
2018-04-08T21:37:26.890Z,7.40
2018-04-08T21:39:54.500Z,6.53
2018-04-08T21:42:22.274Z,7.23
2018-04-08T21:44:50.627Z,7.63
2018-04-08T21:47:18.155Z,7.73
2018-04-08T21:49:45.693Z,6.50
2018-04-08T21:52:14.426Z,7.43
2018-04-08T21:54:41.970Z,7.10
2018-04-08T21:57:09.575Z,7.70
2018-04-08T21:59:37.912Z,10.00
2018-04-08T22:02:05.698Z,9.50
2018-04-08T22:04:34.013Z,7.93
2018-04-08T22:07:01.740Z,7.70
2018-04-08T22:09:29.255Z,7.07
2018-04-08T22:11:57.755Z,6.50
2018-04-08T22:14:25.281Z,6.53
2018-04-08T22:16:54.405Z,7.57
2018-04-08T22:19:22.025Z,6.67
2018-04-08T22:21:49.618Z,6.90
2018-04-08T22:24:17.564Z,7.70
2018-04-08T22:26:45.855Z,7.17
2018-04-08T22:29:13.421Z,6.53
2018-04-08T22:31:40.971Z,7.70
2018-04-08T22:34:08.516Z,7.87
2018-04-08T22:36:36.096Z,7.20
2018-04-08T22:39:03.695Z,7.07
2018-04-08T22:41:31.258Z,7.50
2018-04-08T22:43:58.814Z,7.50
2018-04-08T22:46:27.702Z,7.20
2018-04-08T22:48:55.269Z,7.07
2018-04-08T22:51:22.817Z,6.83
2018-04-08T22:53:50.375Z,7.57
2018-04-08T22:56:17.963Z,6.53
2018-04-08T22:58:45.802Z,7.10
2018-04-08T23:01:13.333Z,7.20
2018-04-08T23:03:41.659Z,6.60
2018-04-08T23:06:09.174Z,6.13
2018-04-08T23:08:37.338Z,6.37
2018-04-08T23:11:06.961Z,6.83
2018-04-08T23:13:35.290Z,7.40
2018-04-08T23:16:03.044Z,7.53
2018-04-08T23:18:31.155Z,6.70
2018-04-08T23:20:58.667Z,7.47
2018-04-08T23:23:27.124Z,7.20
2018-04-08T23:25:55.292Z,7.40
2018-04-08T23:28:23.611Z,6.87
2018-04-08T23:30:51.171Z,7.53
2018-04-08T23:33:18.715Z,6.63
2018-04-08T23:35:47.077Z,7.60
2018-04-08T23:38:14.638Z,6.37
2018-04-08T23:40:42.163Z,7.03
2018-04-08T23:43:11.084Z,8.00
2018-04-08T23:45:39.418Z,7.20
2018-04-08T23:48:07.782Z,7.77
2018-04-08T23:50:35.561Z,8.50
2018-04-08T23:53:03.112Z,7.70
2018-04-08T23:55:30.630Z,6.87
2018-04-08T23:57:58.295Z,7.13
